createdAt,value
2024-04-18T00:01:14.995Z,5.60
2024-04-18T00:03:42.108Z,5.60
2024-04-18T00:06:09.159Z,5.70
2024-04-18T00:08:36.019Z,5.70
2024-04-18T00:11:22.876Z,5.70
2024-04-18T00:13:50.825Z,5.70
2024-04-18T00:16:36.042Z,5.60
2024-04-18T00:19:19.272Z,5.60
2024-04-18T00:22:04.445Z,5.60
2024-04-18T00:24:31.540Z,5.60
2024-04-18T00:26:58.502Z,5.60
2024-04-18T00:29:38.178Z,5.60
2024-04-18T00:32:11.838Z,5.60
2024-04-18T00:34:38.828Z,5.70
2024-04-18T00:37:05.975Z,5.60
2024-04-18T00:39:51.993Z,5.60
2024-04-18T00:42:39.097Z,5.60
2024-04-18T00:45:06.789Z,5.50
2024-04-18T00:47:45.415Z,5.70
2024-04-18T00:50:12.565Z,5.70
2024-04-18T00:52:40.271Z,5.70
2024-04-18T00:55:07.637Z,5.70
2024-04-18T00:57:37.660Z,5.70
2024-04-18T01:00:06.595Z,5.70
2024-04-18T01:02:52.076Z,5.60
2024-04-18T01:05:34.846Z,5.50
2024-04-18T01:08:04.170Z,5.60
2024-04-18T01:10:50.174Z,5.50
2024-04-18T01:13:17.026Z,5.50
2024-04-18T01:16:05.519Z,5.50
2024-04-18T01:18:33.619Z,5.40
2024-04-18T01:21:14.895Z,5.30
2024-04-18T01:23:41.895Z,5.30
2024-04-18T01:26:17.035Z,5.20
2024-04-18T01:28:43.898Z,5.30
2024-04-18T01:31:30.721Z,5.30
2024-04-18T01:33:58.538Z,5.30
2024-04-18T01:36:26.183Z,5.20
2024-04-18T01:38:53.619Z,5.20
2024-04-18T01:41:30.906Z,5.20
2024-04-18T01:44:00.510Z,5.20
2024-04-18T01:46:46.060Z,5.20
2024-04-18T01:49:30.033Z,5.30
2024-04-18T01:51:56.955Z,5.20
2024-04-18T01:54:36.550Z,5.20
2024-04-18T01:57:04.207Z,5.20
2024-04-18T01:59:49.843Z,5.10
2024-04-18T02:02:16.711Z,5.00
2024-04-18T02:05:03.642Z,5.00
2024-04-18T02:07:45.830Z,4.90
2024-04-18T02:10:12.760Z,4.80
2024-04-18T02:13:12.224Z,4.80
2024-04-18T02:15:45.052Z,4.90
2024-04-18T02:18:14.877Z,4.90
2024-04-18T02:20:41.952Z,5.00
2024-04-18T02:23:24.325Z,4.90
2024-04-18T02:25:51.492Z,5.00
2024-04-18T02:28:18.426Z,5.00
2024-04-18T02:30:45.420Z,5.00
2024-04-18T02:33:16.930Z,4.90
2024-04-18T02:35:48.195Z,4.90
2024-04-18T02:38:34.352Z,4.80
2024-04-18T02:41:09.004Z,4.90
2024-04-18T02:43:52.078Z,4.90
2024-04-18T02:46:19.165Z,4.90
2024-04-18T02:49:04.566Z,4.80
2024-04-18T02:51:31.503Z,4.90
2024-04-18T02:54:14.356Z,4.80
2024-04-18T02:56:42.286Z,4.80
2024-04-18T02:59:11.480Z,4.80
2024-04-18T03:01:51.015Z,4.80
2024-04-18T03:04:18.575Z,4.80
2024-04-18T03:06:49.213Z,4.80
2024-04-18T03:09:16.843Z,4.80
2024-04-18T03:11:53.854Z,4.90
2024-04-18T03:14:42.949Z,4.90
2024-04-18T03:17:10.091Z,4.90
2024-04-18T03:19:55.892Z,4.80
2024-04-18T03:22:26.077Z,4.90
2024-04-18T03:25:02.501Z,4.90
2024-04-18T03:27:32.840Z,4.90
2024-04-18T03:29:59.727Z,4.90
2024-04-18T03:32:39.462Z,4.80
2024-04-18T03:35:06.508Z,4.70
2024-04-18T03:37:38.592Z,4.80
2024-04-18T03:40:28.772Z,4.80
2024-04-18T03:43:01.589Z,4.90
2024-04-18T03:45:28.907Z,4.80
2024-04-18T03:48:15.755Z,4.90
2024-04-18T03:50:45.382Z,4.90
2024-04-18T03:53:21.938Z,4.90
2024-04-18T03:56:09.256Z,4.90
2024-04-18T03:58:36.298Z,4.90
2024-04-18T04:01:03.398Z,4.90
2024-04-18T04:03:30.312Z,4.90
2024-04-18T04:05:57.254Z,4.70
2024-04-18T04:08:24.164Z,4.70
2024-04-18T04:11:09.883Z,4.60
2024-04-18T04:13:37.835Z,4.50
2024-04-18T04:16:16.950Z,4.30
2024-04-18T04:18:44.511Z,4.30
2024-04-18T04:21:37.316Z,4.20
2024-04-18T04:24:04.502Z,4.20
2024-04-18T04:26:53.213Z,4.20
2024-04-18T04:29:21.016Z,4.00
2024-04-18T04:31:47.974Z,4.10
2024-04-18T04:34:15.032Z,4.10
2024-04-18T04:36:41.996Z,4.10
2024-04-18T04:39:09.245Z,4.10
2024-04-18T04:41:40.857Z,4.10
2024-04-18T04:44:07.848Z,4.10
2024-04-18T04:46:51.267Z,4.20
2024-04-18T04:49:19.419Z,4.30
2024-04-18T04:52:02.767Z,4.30
2024-04-18T04:54:48.060Z,4.30
2024-04-18T04:57:15.718Z,4.40
2024-04-18T04:59:44.084Z,4.40
2024-04-18T05:02:10.982Z,4.40
2024-04-18T05:04:53.228Z,4.40
2024-04-18T05:07:33.163Z,4.40
2024-04-18T05:10:21.293Z,4.40
2024-04-18T05:12:52.722Z,4.50
2024-04-18T05:15:35.335Z,4.50
2024-04-18T05:18:02.355Z,4.60
2024-04-18T05:20:29.411Z,4.50
2024-04-18T05:22:56.229Z,4.50
2024-04-18T05:25:23.994Z,4.50
2024-04-18T05:28:05.116Z,4.60
2024-04-18T05:30:53.388Z,4.60
2024-04-18T05:33:20.380Z,4.80
2024-04-18T05:35:47.276Z,4.80
2024-04-18T05:38:14.167Z,4.70
2024-04-18T05:40:40.956Z,4.70
2024-04-18T05:43:08.044Z,4.70
2024-04-18T05:45:51.092Z,4.80
2024-04-18T05:48:19.231Z,4.90
2024-04-18T05:50:46.254Z,5.00
2024-04-18T05:53:22.000Z,5.10
2024-04-18T05:55:54.645Z,5.10
2024-04-18T05:58:21.712Z,5.10
2024-04-18T06:00:54.516Z,5.20
2024-04-18T06:03:21.555Z,5.20
2024-04-18T06:05:48.610Z,5.30
2024-04-18T06:08:15.946Z,5.30
2024-04-18T06:10:43.645Z,5.50
2024-04-18T06:13:21.019Z,5.50
2024-04-18T06:15:49.180Z,5.80
2024-04-18T06:18:16.556Z,5.80
2024-04-18T06:20:51.853Z,5.90
2024-04-18T06:23:19.053Z,6.00
2024-04-18T06:26:05.943Z,5.90
2024-04-18T06:28:33.350Z,6.10
2024-04-18T06:31:00.480Z,6.20
2024-04-18T06:33:30.691Z,6.40
2024-04-18T06:35:59.279Z,6.30
2024-04-18T06:38:26.380Z,6.40
2024-04-18T06:40:53.205Z,6.40
2024-04-18T06:43:23.558Z,6.40
2024-04-18T06:45:53.525Z,6.40
2024-04-18T06:48:20.530Z,6.40
2024-04-18T06:50:48.450Z,6.50
2024-04-18T06:53:15.588Z,6.50
2024-04-18T06:55:42.529Z,6.50
2024-04-18T06:58:09.476Z,6.60
2024-04-18T07:00:39.080Z,6.60
2024-04-18T07:03:13.126Z,6.60
2024-04-18T07:05:52.404Z,6.60
2024-04-18T07:08:22.822Z,6.60
2024-04-18T07:10:49.711Z,6.70
2024-04-18T07:13:31.542Z,6.80
2024-04-18T07:16:00.373Z,7.00
2024-04-18T07:18:46.540Z,7.20
2024-04-18T07:21:16.148Z,7.30
2024-04-18T07:23:43.105Z,7.50
2024-04-18T07:26:10.106Z,7.60
2024-04-18T07:28:37.076Z,7.60
2024-04-18T07:31:04.125Z,7.60
2024-04-18T07:33:31.314Z,7.80
2024-04-18T07:36:02.398Z,7.80
2024-04-18T07:38:29.426Z,7.80
2024-04-18T07:40:56.307Z,8.00
2024-04-18T07:43:23.303Z,8.20
2024-04-18T07:45:50.415Z,8.30
2024-04-18T07:48:17.535Z,8.20
2024-04-18T07:50:45.543Z,8.10
2024-04-18T07:53:12.705Z,7.90
2024-04-18T07:55:59.554Z,7.70
2024-04-18T07:58:28.177Z,7.50
2024-04-18T08:00:56.719Z,7.60
2024-04-18T08:03:26.524Z,7.70
2024-04-18T08:05:56.766Z,7.60
2024-04-18T08:08:27.689Z,7.60
2024-04-18T08:11:16.194Z,7.80
2024-04-18T08:13:47.737Z,7.80
2024-04-18T08:16:19.489Z,7.90
2024-04-18T08:18:46.589Z,8.00
2024-04-18T08:21:14.517Z,8.30
2024-04-18T08:23:41.480Z,8.40
2024-04-18T08:26:08.746Z,8.50
2024-04-18T08:28:35.580Z,8.40
2024-04-18T08:31:02.441Z,8.60
2024-04-18T08:33:29.559Z,8.60
2024-04-18T08:35:56.422Z,8.50
2024-04-18T08:38:23.255Z,8.40
2024-04-18T08:40:51.734Z,8.60
2024-04-18T08:43:18.710Z,8.50
2024-04-18T08:45:46.765Z,8.60
2024-04-18T08:48:14.754Z,8.80
2024-04-18T08:50:46.234Z,8.80
2024-04-18T08:53:13.129Z,9.10
2024-04-18T08:55:50.241Z,9.00
2024-04-18T08:58:18.783Z,8.90
2024-04-18T09:00:48.826Z,8.80
2024-04-18T09:03:16.145Z,8.80
2024-04-18T09:05:44.946Z,8.60
2024-04-18T09:08:14.178Z,8.50
2024-04-18T09:10:42.163Z,8.30
2024-04-18T09:13:10.707Z,8.30
2024-04-18T09:15:38.615Z,8.30
2024-04-18T09:18:08.043Z,8.40
2024-04-18T09:20:36.779Z,8.40
2024-04-18T09:23:05.317Z,8.50
2024-04-18T09:25:36.131Z,8.50
2024-04-18T09:28:05.557Z,8.70
2024-04-18T09:30:32.517Z,8.90
2024-04-18T09:33:04.237Z,9.00
2024-04-18T09:35:36.689Z,9.10
2024-04-18T09:38:10.127Z,9.30
2024-04-18T09:40:42.385Z,9.40
2024-04-18T09:47:10.334Z,9.40
2024-04-18T09:49:39.392Z,9.60
2024-04-18T09:52:08.241Z,9.60
2024-04-18T09:54:37.493Z,9.70
2024-04-18T09:57:06.518Z,9.50
2024-04-18T09:59:33.771Z,9.60
2024-04-18T10:02:06.193Z,9.50
2024-04-18T10:04:33.654Z,9.40
2024-04-18T10:07:01.224Z,9.40
2024-04-18T10:09:29.327Z,9.50
2024-04-18T10:11:56.383Z,9.40
2024-04-18T10:14:23.245Z,9.30
2024-04-18T10:16:51.494Z,9.30
2024-04-18T10:19:22.955Z,9.20
2024-04-18T10:24:35.194Z,9.30
2024-04-18T10:27:08.069Z,9.40
2024-04-18T10:29:35.898Z,9.40
2024-04-18T10:32:04.941Z,9.30
2024-04-18T10:34:33.803Z,9.30
2024-04-18T10:37:07.406Z,9.30
2024-04-18T10:39:39.294Z,9.40
2024-04-18T10:42:10.687Z,9.60
2024-04-18T10:44:38.697Z,9.90
2024-04-18T10:47:06.479Z,9.60
2024-04-18T10:49:39.340Z,9.50
2024-04-18T10:52:12.131Z,9.50
2024-04-18T10:54:39.132Z,9.60
2024-04-18T10:57:06.224Z,9.80
2024-04-18T10:59:33.167Z,9.90
2024-04-18T11:02:05.022Z,9.90
2024-04-18T11:04:32.293Z,10.20
2024-04-18T11:06:59.191Z,10.60
2024-04-18T11:09:26.162Z,10.70
2024-04-18T11:11:53.370Z,10.90
2024-04-18T11:14:22.691Z,10.70
2024-04-18T11:17:01.730Z,10.50
2024-04-18T11:19:29.844Z,10.40
2024-04-18T11:22:00.864Z,9.90
2024-04-18T11:24:29.400Z,9.70
2024-04-18T11:26:56.366Z,9.60
2024-04-18T11:29:29.543Z,9.70
2024-04-18T11:32:12.436Z,9.80
2024-04-18T11:34:44.140Z,9.80
2024-04-18T11:37:14.892Z,9.80
2024-04-18T11:39:42.641Z,9.80
2024-04-18T11:42:09.633Z,9.90
2024-04-18T11:44:36.650Z,10.10
2024-04-18T11:47:03.663Z,10.30
2024-04-18T11:49:30.670Z,10.60
2024-04-18T11:51:58.189Z,10.70
2024-04-18T11:54:26.052Z,10.60
2024-04-18T11:56:54.887Z,10.60
2024-04-18T11:59:32.708Z,10.60
2024-04-18T12:01:59.580Z,10.50
2024-04-18T12:04:26.436Z,10.40
2024-04-18T12:06:53.376Z,10.30
2024-04-18T12:09:30.045Z,10.40
2024-04-18T12:12:00.428Z,10.70
2024-04-18T12:14:48.543Z,11.10
2024-04-18T12:17:29.837Z,11.20
2024-04-18T12:20:16.370Z,11.20
2024-04-18T12:22:43.200Z,11.30
2024-04-18T12:25:17.032Z,11.30
2024-04-18T12:27:44.319Z,11.30
2024-04-18T12:30:30.826Z,11.40
2024-04-18T12:33:16.909Z,11.10
2024-04-18T12:35:44.118Z,11.00
2024-04-18T12:38:11.130Z,11.10
2024-04-18T12:40:45.452Z,11.20
2024-04-18T12:43:21.506Z,11.40
2024-04-18T12:46:06.769Z,11.50
2024-04-18T12:48:52.322Z,11.20
2024-04-18T12:51:19.603Z,11.00
2024-04-18T12:53:46.810Z,10.90
2024-04-18T12:56:14.078Z,11.00
2024-04-18T12:58:44.202Z,10.90
2024-04-18T13:01:12.535Z,10.80
2024-04-18T13:03:40.599Z,11.00
2024-04-18T13:06:28.438Z,11.10
2024-04-18T13:08:57.739Z,11.20
2024-04-18T13:11:42.737Z,11.20
2024-04-18T13:14:10.865Z,11.20
2024-04-18T13:16:38.540Z,11.10
2024-04-18T13:19:12.360Z,11.10
2024-04-18T13:21:42.267Z,11.40
2024-04-18T13:24:11.240Z,11.40
2024-04-18T13:27:07.588Z,11.20
2024-04-18T13:29:53.943Z,11.10
2024-04-18T13:32:35.059Z,11.40
2024-04-18T13:35:02.122Z,11.60
2024-04-18T13:37:29.090Z,11.80
2024-04-18T13:40:15.090Z,12.20
2024-04-18T13:43:00.754Z,12.50
2024-04-18T13:45:29.360Z,12.60
2024-04-18T13:47:56.470Z,12.10
2024-04-18T13:50:42.113Z,11.60
2024-04-18T13:53:09.008Z,11.30
2024-04-18T13:55:44.862Z,11.20
2024-04-18T13:58:11.958Z,11.30
2024-04-18T14:00:56.378Z,11.30
2024-04-18T14:03:29.770Z,11.50
2024-04-18T14:06:08.440Z,11.40
2024-04-18T14:08:40.064Z,11.50
2024-04-18T14:11:27.730Z,11.60
2024-04-18T14:14:08.716Z,11.60
2024-04-18T14:16:56.111Z,11.50
2024-04-18T14:19:30.995Z,11.70
2024-04-18T14:22:04.427Z,12.10
2024-04-18T14:24:31.297Z,12.40
2024-04-18T14:26:58.312Z,12.60
2024-04-18T14:29:27.959Z,12.80
2024-04-18T14:32:00.818Z,12.80
2024-04-18T14:34:47.240Z,12.70
2024-04-18T14:37:15.916Z,12.60
2024-04-18T14:39:42.829Z,12.50
2024-04-18T14:42:09.689Z,12.40
2024-04-18T14:44:36.564Z,12.20
2024-04-18T14:47:16.793Z,12.00
2024-04-18T14:50:01.874Z,11.90
2024-04-18T14:52:34.120Z,11.80
2024-04-18T14:55:01.101Z,11.80
2024-04-18T14:57:34.283Z,12.00
2024-04-18T15:00:19.957Z,12.30
2024-04-18T15:02:47.396Z,12.40
2024-04-18T15:05:33.641Z,12.20
2024-04-18T15:08:00.861Z,11.60
2024-04-18T15:10:46.413Z,11.50
2024-04-18T15:13:13.491Z,11.50
2024-04-18T15:15:42.474Z,11.50
2024-04-18T15:18:09.547Z,11.60
2024-04-18T15:20:36.666Z,11.60
2024-04-18T15:23:10.692Z,11.60
2024-04-18T15:25:37.663Z,11.70
2024-04-18T15:28:05.122Z,12.20
2024-04-18T15:30:32.260Z,12.90
2024-04-18T15:33:18.110Z,13.60
2024-04-18T15:35:45.199Z,14.60
2024-04-18T15:38:15.370Z,15.80
2024-04-18T15:41:02.512Z,16.00
2024-04-18T15:43:34.748Z,17.10
2024-04-18T15:46:05.222Z,16.40
2024-04-18T15:48:32.618Z,15.70
2024-04-18T15:50:59.689Z,15.30
2024-04-18T15:53:32.612Z,14.50
2024-04-18T15:56:09.079Z,14.00
2024-04-18T15:58:54.740Z,13.30
2024-04-18T16:01:23.223Z,13.00
2024-04-18T16:04:16.406Z,12.70
2024-04-18T16:07:01.344Z,12.30
2024-04-18T16:09:46.720Z,12.20
2024-04-18T16:12:23.103Z,12.50
2024-04-18T16:15:03.545Z,13.10
2024-04-18T16:17:30.762Z,13.10
2024-04-18T16:20:14.062Z,12.90
2024-04-18T16:22:41.205Z,12.40
2024-04-18T16:25:26.932Z,12.20
2024-04-18T16:27:53.826Z,12.10
2024-04-18T16:30:21.277Z,11.90
2024-04-18T16:32:49.007Z,11.80
2024-04-18T16:35:16.414Z,11.70
2024-04-18T16:37:45.530Z,11.80
2024-04-18T16:40:15.634Z,11.70
2024-04-18T16:42:58.656Z,11.70
2024-04-18T16:45:26.120Z,11.60
2024-04-18T16:47:53.271Z,11.70
2024-04-18T16:50:20.263Z,11.70
2024-04-18T16:52:50.877Z,11.70
2024-04-18T16:55:36.816Z,11.50
2024-04-18T16:58:16.242Z,11.50
2024-04-18T17:00:58.116Z,11.40
2024-04-18T17:03:26.414Z,11.30
2024-04-18T17:06:04.198Z,11.30
2024-04-18T17:08:32.238Z,11.30
2024-04-18T17:10:59.337Z,11.20
2024-04-18T17:13:45.026Z,11.10
2024-04-18T17:16:12.278Z,11.00
2024-04-18T17:19:03.021Z,10.80
2024-04-18T17:21:30.198Z,10.80
2024-04-18T17:23:57.407Z,10.80
2024-04-18T17:26:27.331Z,10.70
2024-04-18T17:28:55.450Z,10.30
2024-04-18T17:31:39.306Z,10.10
2024-04-18T17:34:06.269Z,10.00
2024-04-18T17:36:33.126Z,9.80
2024-04-18T17:39:00.102Z,9.70
2024-04-18T17:41:30.775Z,9.50
2024-04-18T17:44:16.729Z,9.40
2024-04-18T17:47:00.069Z,9.30
2024-04-18T17:49:27.883Z,9.30
2024-04-18T17:51:55.297Z,9.20
2024-04-18T17:54:22.833Z,9.10
2024-04-18T17:56:50.092Z,9.00
2024-04-18T17:59:16.990Z,9.00
2024-04-18T18:01:44.665Z,8.90
2024-04-18T18:04:13.037Z,8.90
2024-04-18T18:06:40.563Z,8.70
2024-04-18T18:09:07.681Z,8.60
2024-04-18T18:11:34.824Z,8.60
2024-04-18T18:14:03.276Z,8.60
2024-04-18T18:16:50.203Z,8.60
2024-04-18T18:19:17.227Z,8.60
2024-04-18T18:21:56.184Z,8.60
2024-04-18T18:24:23.160Z,8.60
2024-04-18T18:26:50.155Z,8.50
2024-04-18T18:29:18.550Z,8.50
2024-04-18T18:32:04.674Z,8.40
2024-04-18T18:34:33.187Z,8.40
2024-04-18T18:37:00.180Z,8.30
2024-04-18T18:39:29.795Z,8.20
2024-04-18T18:41:56.875Z,8.10
2024-04-18T18:44:23.730Z,8.10
2024-04-18T18:46:50.710Z,7.90
2024-04-18T18:49:17.785Z,7.90
2024-04-18T18:51:45.291Z,7.80
2024-04-18T18:54:13.047Z,7.70
2024-04-18T18:56:41.068Z,7.60
2024-04-18T18:59:26.929Z,7.60
2024-04-18T19:01:53.860Z,7.50
2024-04-18T19:04:21.935Z,7.50
2024-04-18T19:06:48.893Z,7.40
2024-04-18T19:09:16.214Z,7.30
2024-04-18T19:11:43.182Z,7.30
2024-04-18T19:14:10.221Z,7.30
2024-04-18T19:16:57.650Z,7.30
2024-04-18T19:19:26.019Z,7.30
2024-04-18T19:21:54.441Z,7.30
2024-04-18T19:24:21.886Z,7.30
2024-04-18T19:27:00.736Z,7.20
2024-04-18T19:29:36.446Z,7.20
2024-04-18T19:32:11.789Z,7.20
2024-04-18T19:34:38.798Z,7.20
2024-04-18T19:37:05.767Z,7.20
2024-04-18T19:39:32.758Z,7.20
2024-04-18T19:42:01.283Z,7.30
2024-04-18T19:44:28.312Z,7.20
2024-04-18T19:46:55.232Z,7.20
2024-04-18T19:49:22.394Z,7.30
2024-04-18T19:52:01.863Z,7.30
2024-04-18T19:54:31.391Z,7.30
2024-04-18T19:56:58.481Z,7.30
2024-04-18T19:59:25.318Z,7.30
2024-04-18T20:01:52.291Z,7.30
2024-04-18T20:04:19.434Z,7.40
2024-04-18T20:06:46.445Z,7.40
2024-04-18T20:09:13.386Z,7.40
2024-04-18T20:11:40.336Z,7.30
2024-04-18T20:14:07.211Z,7.30
2024-04-18T20:16:35.261Z,7.30
2024-04-18T20:19:15.510Z,7.20
2024-04-18T20:21:44.505Z,7.20
2024-04-18T20:24:13.246Z,7.20
2024-04-18T20:27:00.496Z,7.20
2024-04-18T20:29:46.121Z,7.20
2024-04-18T20:32:26.218Z,7.20
2024-04-18T20:34:54.437Z,7.20
2024-04-18T20:37:21.671Z,7.20
2024-04-18T20:39:48.664Z,7.00
2024-04-18T20:42:15.781Z,7.00
2024-04-18T20:45:02.911Z,7.00
2024-04-18T20:47:30.155Z,7.00
2024-04-18T20:49:57.124Z,6.90
2024-04-18T20:52:24.015Z,6.80
2024-04-18T20:54:51.077Z,6.80
2024-04-18T20:57:18.255Z,6.80
2024-04-18T20:59:45.141Z,6.80
2024-04-18T21:02:12.156Z,6.80
2024-04-18T21:04:39.124Z,6.70
2024-04-18T21:07:06.414Z,6.70
2024-04-18T21:09:34.056Z,6.60
2024-04-18T21:12:01.039Z,6.60
2024-04-18T21:14:28.080Z,6.60
2024-04-18T21:16:55.101Z,6.60
2024-04-18T21:19:22.449Z,6.50
2024-04-18T21:21:50.008Z,6.40
2024-04-18T21:24:17.226Z,6.40
2024-04-18T21:26:47.609Z,6.40
2024-04-18T21:29:15.536Z,6.40
2024-04-18T21:31:42.933Z,6.40
2024-04-18T21:34:12.350Z,6.30
2024-04-18T21:36:40.199Z,6.30
2024-04-18T21:39:08.132Z,6.20
2024-04-18T21:41:39.264Z,6.20
2024-04-18T21:44:06.510Z,6.20
2024-04-18T21:46:33.744Z,6.10
2024-04-18T21:49:00.986Z,6.20
2024-04-18T21:51:28.810Z,6.20
2024-04-18T21:54:00.047Z,6.10
2024-04-18T21:56:27.031Z,6.10
2024-04-18T21:58:53.985Z,6.10
2024-04-18T22:01:42.201Z,6.20
2024-04-18T22:04:10.331Z,6.20
2024-04-18T22:06:37.649Z,6.20
2024-04-18T22:09:04.914Z,6.30
2024-04-18T22:11:32.399Z,6.30
2024-04-18T22:13:59.345Z,6.30
2024-04-18T22:16:29.399Z,6.30
2024-04-18T22:18:56.401Z,6.30
2024-04-18T22:21:43.835Z,6.30
2024-04-18T22:24:10.951Z,6.20
2024-04-18T22:26:38.147Z,6.20
2024-04-18T22:29:05.399Z,6.20
2024-04-18T22:31:33.134Z,6.20
2024-04-18T22:34:00.239Z,6.20
2024-04-18T22:36:27.968Z,6.20
2024-04-18T22:38:57.183Z,6.20
2024-04-18T22:41:24.269Z,6.20
2024-04-18T22:43:51.275Z,6.10
2024-04-18T22:46:18.305Z,6.10
2024-04-18T22:48:45.654Z,6.10
2024-04-18T22:51:12.729Z,6.10
2024-04-18T22:53:39.775Z,6.10
2024-04-18T22:56:06.969Z,6.10
2024-04-18T22:58:34.135Z,6.00
2024-04-18T23:01:04.685Z,6.00
2024-04-18T23:03:34.182Z,6.10
2024-04-18T23:06:14.975Z,6.10
2024-04-18T23:08:43.056Z,6.20
2024-04-18T23:11:10.224Z,6.10
2024-04-18T23:13:37.215Z,6.30
2024-04-18T23:16:04.542Z,6.20
2024-04-18T23:18:31.683Z,6.30
2024-04-18T23:20:58.752Z,6.30
2024-04-18T23:23:34.854Z,6.30
2024-04-18T23:26:02.923Z,6.30
2024-04-18T23:28:29.848Z,6.30
2024-04-18T23:30:56.795Z,6.30
2024-04-18T23:33:23.871Z,6.30
2024-04-18T23:35:50.865Z,6.30
2024-04-18T23:38:17.846Z,6.30
2024-04-18T23:40:44.813Z,6.30
2024-04-18T23:43:11.916Z,6.30
2024-04-18T23:45:39.241Z,6.30
2024-04-18T23:48:08.156Z,6.30
2024-04-18T23:50:35.268Z,6.30
2024-04-18T23:53:02.266Z,6.20
2024-04-18T23:55:29.350Z,6.20
2024-04-18T23:57:56.389Z,6.30
